Time;durP1;ratioP1;P1;durP2;ratioP2;P2;SDS_P1;SDS_P2;PMS_P1;PMS_P2;Temp;Humidity;BMP_temperature;BMP_pressure;BME280_temperature;BME280_humidity;BME280_pressure;Samples;Min_cycle;Max_cycle;Signal;HPM_P1;HPM_P2
2022/06/05 00:00:06;;;;;;;45.53;13.00;;;25.40;73.50;;;;;;5091305;28;20051;-68
2022/06/05 00:03:34;;;;;;;29.80;10.57;;;25.30;72.50;;;;;;5091244;28;20053;-68
2022/06/05 00:07:04;;;;;;;32.25;9.60;;;25.40;71.20;;;;;;5091330;28;20067;-68
2022/06/05 00:10:17;;;;;;;29.93;8.77;;;25.50;70.30;;;;;;5091500;28;20047;-66
2022/06/05 00:13:26;;;;;;;28.83;9.10;;;25.40;70.90;;;;;;5090469;28;20051;-68
2022/06/05 00:16:30;;;;;;;26.27;9.10;;;25.30;71.80;;;;;;5091505;28;20047;-68
2022/06/05 00:19:39;;;;;;;30.90;10.48;;;25.20;72.70;;;;;;5093784;28;20039;-68
2022/06/05 00:22:44;;;;;;;33.90;10.85;;;25.30;72.20;;;;;;5095165;28;20047;-68
2022/06/05 00:26:10;;;;;;;29.33;12.35;;;25.30;72.60;;;;;;5095259;28;20506;-67
2022/06/05 00:29:29;;;;;;;29.05;12.02;;;25.40;72.60;;;;;;5094695;28;20043;-67
2022/06/05 00:32:54;;;;;;;38.95;11.95;;;25.40;72.70;;;;;;5095226;28;20054;-68
2022/06/05 00:36:18;;;;;;;29.58;9.85;;;25.30;72.80;;;;;;5095324;28;20035;-67
2022/06/05 00:39:41;;;;;;;24.73;9.50;;;25.30;72.80;;;;;;5095107;28;20039;-68
2022/06/05 00:42:48;;;;;;;32.55;9.40;;;25.20;73.20;;;;;;5094974;28;20039;-68
2022/06/05 00:45:55;;;;;;;25.02;9.02;;;25.10;73.40;;;;;;5095160;28;20051;-68
2022/06/05 00:49:00;;;;;;;26.08;8.35;;;25.10;73.20;;;;;;5095180;28;20051;-68
2022/06/05 00:52:07;;;;;;;25.10;9.05;;;25.20;73.40;;;;;;5094955;28;20066;-68
2022/06/05 00:55:12;;;;;;;28.02;9.63;;;25.10;73.30;;;;;;5094889;28;20045;-69
2022/06/05 00:58:18;;;;;;;28.35;9.43;;;25.10;73.60;;;;;;5094752;28;20043;-68
2022/06/05 01:01:24;;;;;;;29.52;9.10;;;25.00;74.00;;;;;;5093728;28;20053;-68
2022/06/05 01:04:32;;;;;;;28.15;9.18;;;25.00;73.80;;;;;;5094516;28;20490;-68
2022/06/05 01:07:36;;;;;;;34.30;10.93;;;25.00;74.20;;;;;;5094755;28;20503;-67
2022/06/05 01:11:08;;;;;;;33.40;11.15;;;25.00;74.20;;;;;;5094334;28;20050;-68
2022/06/05 01:14:59;;;;;;;29.27;10.10;;;25.00;74.30;;;;;;5094378;28;20043;-68
2022/06/05 01:18:18;;;;;;;26.70;10.50;;;24.90;74.60;;;;;;5086084;28;20498;-68
2022/06/05 01:21:44;;;;;;;35.55;11.32;;;24.80;74.50;;;;;;5094453;28;20399;-67
2022/06/05 01:25:01;;;;;;;56.85;13.38;;;24.80;74.60;;;;;;5093755;28;20043;-68
2022/06/05 01:28:17;;;;;;;30.67;9.85;;;24.70;74.20;;;;;;5094504;28;20055;-67
2022/06/05 01:31:28;;;;;;;29.88;9.40;;;24.60;74.10;;;;;;5093274;28;20039;-68
2022/06/05 01:34:54;;;;;;;31.85;11.40;;;24.60;73.80;;;;;;5093770;28;20039;-67
2022/06/05 01:38:13;;;;;;;38.45;11.45;;;24.60;73.30;;;;;;5094406;28;20086;-68
2022/06/05 01:41:27;;;;;;;21.63;7.97;;;24.50;74.00;;;;;;5094011;28;20039;-68
2022/06/05 01:44:48;;;;;;;26.55;8.18;;;24.40;73.40;;;;;;5093992;28;20039;-67
2022/06/05 01:47:54;;;;;;;28.13;7.15;;;24.50;72.50;;;;;;5094027;28;20046;-68
2022/06/05 01:51:03;;;;;;;23.10;6.82;;;24.40;72.60;;;;;;5093589;28;20043;-68
2022/06/05 01:54:15;;;;;;;23.65;6.35;;;24.30;72.90;;;;;;5094020;28;20050;-68
2022/06/05 01:57:20;;;;;;;;;;;24.00;73.70;;;;;;5093293;28;20420;-68
2022/06/05 02:00:25;;;;;;;18.52;5.75;;;23.70;74.80;;;;;;5093103;28;20382;-68
2022/06/05 02:03:37;;;;;;;23.15;6.55;;;23.60;75.50;;;;;;5093525;28;20043;-68
2022/06/05 02:07:09;;;;;;;18.27;5.97;;;23.50;75.60;;;;;;5092487;28;20047;-68
2022/06/05 02:10:33;;;;;;;22.67;6.57;;;23.40;76.40;;;;;;5093251;28;20031;-68
2022/06/05 02:13:37;;;;;;;17.70;5.55;;;23.60;76.50;;;;;;5093241;28;20502;-68
2022/06/05 02:16:43;;;;;;;16.55;6.47;;;23.60;76.20;;;;;;5093512;28;20043;-68
2022/06/05 02:19:47;;;;;;;23.55;6.43;;;23.70;76.20;;;;;;5093198;28;20039;-68
2022/06/05 02:22:52;;;;;;;14.05;5.95;;;23.90;75.90;;;;;;5069268;28;20043;-68
2022/06/05 02:25:56;;;;;;;17.05;6.32;;;24.00;75.40;;;;;;5093161;28;20059;-68
2022/06/05 02:29:10;;;;;;;16.95;6.30;;;24.00;75.60;;;;;;5093423;28;20039;-67
2022/06/05 02:32:29;;;;;;;24.60;6.50;;;24.00;75.80;;;;;;5092127;28;20039;-67
2022/06/05 02:35:42;;;;;;;19.63;6.82;;;23.90;75.80;;;;;;5092985;28;20063;-68
2022/06/05 02:39:15;;;;;;;20.02;6.78;;;24.00;76.30;;;;;;5092788;28;20062;-68
2022/06/05 02:42:34;;;;;;;19.65;6.13;;;24.00;76.20;;;;;;5091410;28;20047;-68
2022/06/05 02:45:46;;;;;;;23.60;6.93;;;24.00;76.70;;;;;;5092716;28;20058;-68
2022/06/05 02:49:01;;;;;;;14.95;6.30;;;23.90;76.60;;;;;;5092467;28;20106;-67
2022/06/05 02:52:06;;;;;;;19.63;6.18;;;23.80;76.30;;;;;;5092596;28;20055;-68
2022/06/05 02:55:16;;;;;;;17.42;6.03;;;23.80;76.40;;;;;;5092689;28;20051;-68
2022/06/05 02:58:20;;;;;;;22.77;6.35;;;23.80;76.00;;;;;;5092565;28;20518;-68
2022/06/05 03:04:46;;;;;;;20.63;6.85;;;24.00;76.40;;;;;;5092066;28;20039;-67
2022/06/05 03:07:50;;;;;;;23.67;6.50;;;24.00;76.60;;;;;;5091849;28;20097;-68
2022/06/05 03:10:54;;;;;;;23.65;7.20;;;24.00;76.90;;;;;;5092232;28;20043;-68
2022/06/05 03:13:58;;;;;;;19.15;6.95;;;23.90;77.20;;;;;;5091936;28;20071;-68
2022/06/05 03:17:03;;;;;;;21.88;6.43;;;23.80;77.30;;;;;;5092396;28;20043;-68
2022/06/05 03:20:09;;;;;;;22.85;6.50;;;23.80;76.90;;;;;;5079883;28;20419;-67
2022/06/05 03:23:13;;;;;;;23.63;6.85;;;23.80;77.60;;;;;;5092208;28;20047;-68
2022/06/05 03:26:17;;;;;;;22.83;7.10;;;23.80;77.60;;;;;;5091923;28;20059;-68
2022/06/05 03:29:21;;;;;;;27.13;7.85;;;23.70;77.70;;;;;;5092079;28;20039;-68
2022/06/05 03:32:26;;;;;;;27.65;8.10;;;23.70;77.90;;;;;;5091741;28;20043;-69
2022/06/05 03:35:30;;;;;;;20.23;8.05;;;23.60;78.00;;;;;;5092293;28;20047;-68
2022/06/05 03:38:34;;;;;;;23.23;7.20;;;23.50;77.80;;;;;;5091802;28;20051;-68
2022/06/05 03:41:38;;;;;;;27.85;7.63;;;23.50;78.20;;;;;;5091917;28;20047;-68
2022/06/05 03:44:42;;;;;;;21.58;7.43;;;23.40;78.10;;;;;;5091925;28;20043;-67
2022/06/05 03:47:46;;;;;;;23.60;7.10;;;23.50;78.20;;;;;;5091959;28;20055;-68
2022/06/05 03:50:51;;;;;;;24.95;6.55;;;23.60;78.20;;;;;;5091884;28;20046;-68
2022/06/05 03:53:55;;;;;;;18.05;6.65;;;23.60;78.30;;;;;;5091700;28;20043;-68
2022/06/05 03:56:58;;;;;;;20.67;7.78;;;23.60;78.10;;;;;;5091784;28;20047;-69
2022/06/05 04:00:04;;;;;;;21.55;6.93;;;23.60;78.40;;;;;;5091772;28;20058;-67
2022/06/05 04:03:16;;;;;;;27.48;6.72;;;23.60;78.40;;;;;;5091259;28;20050;-67
2022/06/05 04:06:23;;;;;;;15.07;7.07;;;23.70;78.50;;;;;;5090871;28;20050;-67
2022/06/05 04:09:27;;;;;;;20.50;7.18;;;23.80;77.40;;;;;;5091952;28;20048;-68
2022/06/05 04:12:31;;;;;;;18.85;6.93;;;23.80;77.40;;;;;;5091306;28;20051;-68
2022/06/05 04:15:39;;;;;;;28.63;9.07;;;23.80;77.40;;;;;;5091736;28;20052;-68
2022/06/05 04:18:43;;;;;;;50.53;27.40;;;23.80;77.60;;;;;;5091189;28;20059;-66
2022/06/05 04:21:47;;;;;;;20.95;8.88;;;23.80;76.90;;;;;;5091635;28;20047;-68
2022/06/05 04:24:52;;;;;;;35.00;8.75;;;23.90;76.70;;;;;;5091453;28;20039;-68
2022/06/05 04:27:57;;;;;;;22.20;7.70;;;23.90;76.90;;;;;;5091371;28;20411;-68
2022/06/05 04:31:03;;;;;;;23.30;7.38;;;24.00;76.50;;;;;;5091276;28;20051;-69
2022/06/05 04:34:11;;;;;;;26.10;8.60;;;24.10;76.10;;;;;;5090926;28;20047;-68
2022/06/05 04:37:16;;;;;;;18.95;7.75;;;24.30;76.00;;;;;;5091410;28;20430;-67
2022/06/05 04:40:20;;;;;;;28.58;8.45;;;24.40;75.90;;;;;;5091599;28;20039;-68
2022/06/05 04:43:24;;;;;;;44.55;15.60;;;24.40;76.70;;;;;;5091186;28;20039;-68
2022/06/05 04:46:29;;;;;;;26.02;8.43;;;24.40;76.40;;;;;;5091150;28;20051;-68
2022/06/05 04:49:35;;;;;;;28.02;8.07;;;24.70;76.50;;;;;;5091217;28;20035;-68
2022/06/05 04:52:39;;;;;;;23.05;8.50;;;24.90;75.70;;;;;;5090928;28;20051;-68
2022/06/05 04:55:43;;;;;;;21.25;7.70;;;25.00;76.20;;;;;;5091684;28;20051;-69
2022/06/05 04:58:47;;;;;;;30.50;8.98;;;25.10;76.10;;;;;;5091093;28;20035;-67
2022/06/05 05:01:52;;;;;;;24.23;7.82;;;25.30;75.50;;;;;;5091029;28;20043;-68
2022/06/05 05:04:57;;;;;;;35.08;10.13;;;25.40;75.00;;;;;;5090638;28;20042;-68
2022/06/05 05:08:01;;;;;;;26.92;9.60;;;25.60;75.10;;;;;;5094739;28;20148;-70
2022/06/05 05:11:05;;;;;;;32.90;9.13;;;25.70;74.30;;;;;;5093605;28;20042;-67
2022/06/05 05:14:11;;;;;;;29.92;10.38;;;25.80;74.40;;;;;;5094406;28;20518;-68
2022/06/05 05:17:15;;;;;;;24.80;9.27;;;26.00;73.20;;;;;;5095076;28;20391;-68
2022/06/05 05:20:20;;;;;;;32.58;9.82;;;26.30;72.60;;;;;;5094781;28;20043;-67
2022/06/05 05:23:23;;;;;;;28.40;9.18;;;26.40;71.90;;;;;;5094404;28;20059;-68
2022/06/05 05:26:32;;;;;;;27.52;9.25;;;26.60;72.40;;;;;;5094128;28;20055;-69
2022/06/05 05:29:39;;;;;;;41.90;9.73;;;26.80;72.60;;;;;;5093718;28;20051;-68
2022/06/05 05:32:43;;;;;;;35.13;9.68;;;27.00;73.00;;;;;;5094188;28;20213;-68
2022/06/05 05:35:47;;;;;;;37.42;10.35;;;27.20;71.30;;;;;;5093960;28;20047;-69
2022/06/05 05:42:16;;;;;;;36.83;12.40;;;27.60;70.20;;;;;;5094139;28;20047;-67
2022/06/05 05:45:20;;;;;;;36.72;10.70;;;27.70;67.20;;;;;;5094215;28;20039;-69
2022/06/05 05:48:24;;;;;;;44.30;11.70;;;27.90;67.90;;;;;;5094183;28;20384;-68
2022/06/05 05:51:28;;;;;;;33.78;11.90;;;28.10;67.70;;;;;;5093243;28;20051;-68
2022/06/05 05:54:33;;;;;;;37.05;12.25;;;28.30;66.80;;;;;;5093696;28;20039;-69
2022/06/05 05:57:39;;;;;;;36.42;13.45;;;28.40;66.80;;;;;;5093746;28;20059;-68
2022/06/05 06:00:43;;;;;;;49.92;12.68;;;28.60;66.00;;;;;;5093677;28;20431;-68
2022/06/05 06:03:47;;;;;;;41.85;12.35;;;28.70;65.90;;;;;;5093503;28;20051;-68
2022/06/05 06:06:51;;;;;;;36.50;11.10;;;28.80;65.90;;;;;;5093273;28;20051;-68
2022/06/05 06:09:55;;;;;;;44.95;12.85;;;29.00;65.90;;;;;;5093507;28;20039;-68
2022/06/05 06:12:59;;;;;;;43.08;11.23;;;29.30;65.50;;;;;;5093374;28;20063;-67
2022/06/05 06:16:04;;;;;;;31.27;9.80;;;29.50;64.60;;;;;;5093577;28;20466;-68
2022/06/05 06:19:08;;;;;;;26.95;9.93;;;29.90;64.10;;;;;;5093534;28;20043;-69
2022/06/05 06:22:13;;;;;;;27.20;8.75;;;30.20;62.40;;;;;;5093522;28;20070;-68
2022/06/05 06:25:17;;;;;;;27.50;8.93;;;30.40;61.60;;;;;;5093223;28;20043;-68
2022/06/05 06:28:21;;;;;;;24.25;8.95;;;30.60;61.80;;;;;;5093248;28;20051;-68
2022/06/05 06:31:25;;;;;;;27.90;9.35;;;30.80;60.70;;;;;;5092353;28;20043;-69
2022/06/05 06:34:29;;;;;;;32.38;10.02;;;31.10;60.00;;;;;;5092236;28;20061;-69
2022/06/05 06:37:33;;;;;;;26.75;8.98;;;31.30;60.50;;;;;;5092387;28;20066;-68
2022/06/05 06:40:37;;;;;;;25.55;8.77;;;31.50;59.40;;;;;;5092710;28;20054;-68
2022/06/05 06:43:43;;;;;;;38.67;9.43;;;31.70;59.00;;;;;;5080552;28;20403;-70
2022/06/05 06:46:47;;;;;;;23.52;9.63;;;31.90;58.80;;;;;;5092862;28;20407;-70
2022/06/05 06:49:51;;;;;;;27.63;9.48;;;32.10;57.10;;;;;;5092856;28;20511;-70
2022/06/05 06:52:55;;;;;;;34.88;9.23;;;32.30;58.00;;;;;;5091936;28;20068;-70
2022/06/05 06:56:05;;;;;;;34.97;10.43;;;32.50;57.10;;;;;;5093051;28;20043;-69
2022/06/05 06:59:09;;;;;;;24.95;8.70;;;32.60;57.10;;;;;;5092684;28;20047;-69
2022/06/05 07:02:13;;;;;;;32.67;9.20;;;32.70;54.90;;;;;;5093064;28;20042;-70
2022/06/05 07:05:17;;;;;;;25.77;9.30;;;32.70;56.20;;;;;;5092626;28;20039;-69
2022/06/05 07:08:21;;;;;;;37.72;9.02;;;32.90;57.60;;;;;;5092838;28;20051;-69
2022/06/05 07:11:25;;;;;;;24.08;7.80;;;33.10;56.70;;;;;;5091873;28;20051;-69
2022/06/05 07:14:30;;;;;;;23.10;8.40;;;33.40;57.00;;;;;;5092909;28;20055;-69
2022/06/05 07:17:34;;;;;;;26.67;7.88;;;33.50;57.20;;;;;;5092241;28;20047;-68
2022/06/05 07:20:42;;;;;;;32.75;8.27;;;33.80;57.50;;;;;;5092121;28;20043;-68
2022/06/05 07:23:47;;;;;;;36.35;8.80;;;33.90;57.80;;;;;;5092444;28;20494;-68
2022/06/05 07:26:54;;;;;;;32.22;7.97;;;33.70;57.10;;;;;;5079890;28;20510;-68
2022/06/05 07:29:58;;;;;;;36.33;8.75;;;33.70;53.30;;;;;;5090869;28;20522;-67
2022/06/05 07:33:02;;;;;;;31.00;9.15;;;33.80;52.40;;;;;;5091155;28;20050;-68
2022/06/05 07:36:09;;;;;;;42.00;14.80;;;34.00;51.10;;;;;;5092486;28;20051;-69
2022/06/05 07:39:13;;;;;;;42.72;15.80;;;34.20;53.40;;;;;;5091295;28;20035;-68
2022/06/05 07:42:17;;;;;;;40.60;11.80;;;34.50;53.20;;;;;;5092239;28;20051;-69
2022/06/05 07:45:21;;;;;;;29.13;10.55;;;34.60;54.20;;;;;;5091190;28;20043;-69
2022/06/05 07:48:25;;;;;;;35.33;9.13;;;34.70;53.90;;;;;;5092097;28;20055;-68
2022/06/05 07:54:52;;;;;;;27.00;9.15;;;34.70;55.20;;;;;;5091935;28;20459;-68
2022/06/05 07:57:56;;;;;;;25.17;7.57;;;34.80;53.10;;;;;;5091529;28;20399;-67
2022/06/05 08:01:00;;;;;;;24.05;7.25;;;34.90;50.20;;;;;;5091808;28;20051;-68
2022/06/05 08:04:06;;;;;;;30.77;6.38;;;35.10;50.80;;;;;;5091503;28;20039;-68
2022/06/05 08:07:15;;;;;;;19.27;5.72;;;35.30;49.80;;;;;;5091295;28;20059;-68
2022/06/05 08:10:19;;;;;;;22.92;6.18;;;35.40;51.20;;;;;;5091724;28;20047;-69
2022/06/05 08:13:24;;;;;;;19.65;5.57;;;35.60;51.10;;;;;;5090200;28;20047;-71
2022/06/05 08:16:32;;;;;;;27.30;6.13;;;35.60;50.60;;;;;;5092064;28;20038;-68
2022/06/05 08:19:38;;;;;;;30.92;6.40;;;35.70;50.50;;;;;;5091874;28;20427;-68
2022/06/05 08:22:42;;;;;;;21.92;5.68;;;35.90;50.20;;;;;;5091571;28;20043;-68
2022/06/05 08:25:46;;;;;;;21.00;4.75;;;35.90;50.20;;;;;;5091287;28;20410;-68
2022/06/05 08:28:50;;;;;;;18.60;5.10;;;35.80;50.00;;;;;;5091264;28;20055;-68
2022/06/05 08:31:55;;;;;;;22.77;4.47;;;35.80;49.90;;;;;;5091170;28;20051;-68
2022/06/05 08:35:03;;;;;;;19.75;4.85;;;35.70;49.50;;;;;;5091663;28;20502;-68
2022/06/05 08:41:46;;;;;;;22.10;5.57;;;36.00;49.60;;;;;;5094918;28;20047;-69
2022/06/05 08:45:09;;;;;;;22.75;5.30;;;36.00;48.60;;;;;;5095629;28;20051;-68
2022/06/05 08:48:39;;;;;;;25.65;5.00;;;35.70;49.40;;;;;;5093746;28;20051;-67
2022/06/05 08:52:05;;;;;;;17.58;5.57;;;35.70;48.80;;;;;;5095785;28;20043;-67
2022/06/05 08:55:43;;;;;;;17.88;4.63;;;35.60;48.80;;;;;;5095360;28;20039;-68
2022/06/05 08:58:52;;;;;;;21.60;5.75;;;35.60;48.80;;;;;;5090024;28;20043;-67
2022/06/05 09:02:20;;;;;;;29.35;5.10;;;35.70;48.70;;;;;;5095904;28;20047;-67
2022/06/05 09:05:46;;;;;;;23.17;5.63;;;35.70;48.70;;;;;;5095893;28;20047;-68
2022/06/05 09:08:56;;;;;;;16.60;5.50;;;35.40;47.60;;;;;;5095254;28;20051;-69
2022/06/05 09:12:23;;;;;;;18.05;4.72;;;35.40;48.60;;;;;;5094572;28;20046;-68
2022/06/05 09:15:36;;;;;;;27.60;5.75;;;35.40;48.70;;;;;;5094851;28;20079;-67
2022/06/05 09:18:46;;;;;;;22.45;6.28;;;35.40;48.90;;;;;;5094050;28;20399;-68
2022/06/05 09:22:17;;;;;;;29.85;9.35;;;35.00;48.90;;;;;;5094637;28;20047;-68
2022/06/05 09:25:27;;;;;;;24.55;8.07;;;34.60;49.70;;;;;;5094411;28;20047;-65
2022/06/05 09:29:01;;;;;;;25.75;6.82;;;34.60;50.50;;;;;;5094955;28;20067;-68
2022/06/05 09:32:18;;;;;;;23.52;7.15;;;34.80;50.40;;;;;;5094884;28;20047;-69
2022/06/05 09:35:31;;;;;;;30.80;9.23;;;34.90;50.30;;;;;;5094501;28;20039;-69
2022/06/05 09:39:03;;;;;;;27.95;7.15;;;35.00;50.30;;;;;;5095080;28;20047;-68
2022/06/05 09:42:32;;;;;;;25.45;8.00;;;35.00;50.70;;;;;;5093450;28;20043;-68
2022/06/05 09:45:58;;;;;;;23.60;7.00;;;35.20;50.40;;;;;;5094687;28;20054;-68
2022/06/05 09:49:24;;;;;;;17.58;6.95;;;35.40;50.40;;;;;;5093464;28;20058;-68
2022/06/05 09:52:31;;;;;;;22.73;6.88;;;35.30;49.60;;;;;;5093416;28;20114;-69
2022/06/05 09:55:50;;;;;;;29.15;7.90;;;35.10;50.00;;;;;;5095239;28;20051;-68
2022/06/05 09:59:00;;;;;;;29.25;6.75;;;34.90;50.80;;;;;;5093603;28;20047;-70
2022/06/05 10:02:06;;;;;;;21.65;7.53;;;34.90;50.80;;;;;;5093035;28;20450;-72
2022/06/05 10:05:22;;;;;;;20.45;7.07;;;35.00;50.60;;;;;;5094233;28;20051;-69
2022/06/05 10:08:41;;;;;;;15.25;6.43;;;35.00;50.90;;;;;;5093574;28;20070;-67
2022/06/05 10:11:57;;;;;;;23.40;6.75;;;35.10;50.90;;;;;;5097346;28;20047;-67
2022/06/05 10:15:53;;;;;;;19.17;6.38;;;35.30;50.90;;;;;;5093734;28;20055;-68
2022/06/05 10:19:23;;;;;;;22.05;6.38;;;35.40;50.70;;;;;;5087229;28;20051;-69
2022/06/05 10:22:37;;;;;;;24.75;6.13;;;35.60;50.20;;;;;;5093498;28;20043;-69
2022/06/05 10:26:13;;;;;;;16.55;5.53;;;35.60;49.50;;;;;;5093035;28;20059;-67
2022/06/05 10:29:36;;;;;;;13.23;5.57;;;35.60;50.40;;;;;;5095580;28;20047;-68
2022/06/05 10:33:00;;;;;;;22.77;5.53;;;35.60;50.00;;;;;;5093372;28;20043;-69
2022/06/05 10:36:18;;;;;;;30.23;6.78;;;35.70;50.40;;;;;;5093524;28;20051;-68
2022/06/05 10:39:59;;;;;;;17.40;5.25;;;35.80;51.20;;;;;;5093077;28;20039;-68
2022/06/05 10:43:21;;;;;;;16.67;5.25;;;35.80;51.90;;;;;;5092899;28;20043;-67
2022/06/05 10:46:28;;;;;;;16.77;5.47;;;35.80;51.20;;;;;;5092500;28;20054;-69
2022/06/05 10:49:59;;;;;;;20.48;5.68;;;35.80;52.10;;;;;;5093052;28;20055;-68
2022/06/05 10:53:19;;;;;;;15.77;5.65;;;35.80;51.50;;;;;;5092709;28;20039;-68
2022/06/05 10:56:35;;;;;;;23.10;7.13;;;35.70;51.90;;;;;;5092833;28;20043;-68
2022/06/05 11:00:05;;;;;;;20.60;6.55;;;35.70;51.80;;;;;;5091563;28;20047;-67
2022/06/05 11:03:20;;;;;;;23.48;7.90;;;35.60;52.20;;;;;;5091525;28;20059;-67
2022/06/05 11:06:41;;;;;;;17.63;6.78;;;35.60;52.30;;;;;;5091916;28;20047;-69
2022/06/05 11:10:02;;;;;;;16.45;7.32;;;35.60;52.20;;;;;;5080951;28;20055;-68
2022/06/05 11:17:01;;;;;;;18.02;6.53;;;35.30;51.50;;;;;;5092256;28;20499;-69
2022/06/05 11:20:18;;;;;;;18.67;7.43;;;35.20;51.40;;;;;;5092341;28;20043;-68
2022/06/05 11:23:29;;;;;;;25.52;6.80;;;35.00;51.80;;;;;;5092024;28;20047;-66
2022/06/05 11:27:02;;;;;;;20.08;5.78;;;34.90;49.80;;;;;;5091858;28;20039;-69
2022/06/05 11:30:19;;;;;;;14.38;5.50;;;34.90;49.90;;;;;;5091959;28;20051;-68
2022/06/05 11:33:25;;;;;;;24.45;6.35;;;34.90;49.50;;;;;;5091274;28;20047;-69
2022/06/05 11:36:41;;;;;;;18.10;5.88;;;35.00;50.30;;;;;;5091732;28;20043;-69
2022/06/05 11:40:04;;;;;;;23.50;6.38;;;35.20;49.70;;;;;;5091789;28;20035;-69
2022/06/05 11:43:30;;;;;;;21.67;5.15;;;35.30;49.30;;;;;;5091920;28;20043;-68
2022/06/05 11:46:49;;;;;;;30.58;5.95;;;35.40;48.20;;;;;;5091738;28;20051;-67
2022/06/05 11:50:30;;;;;;;20.65;5.75;;;35.50;47.90;;;;;;5091438;28;20395;-69
2022/06/05 11:53:47;;;;;;;19.75;4.80;;;35.40;47.80;;;;;;5091878;28;20502;-68
2022/06/05 11:57:14;;;;;;;19.00;4.53;;;35.30;47.90;;;;;;5091933;28;20043;-68
2022/06/05 12:00:24;;;;;;;16.23;4.50;;;35.30;47.90;;;;;;5091014;28;20069;-68
2022/06/05 12:03:38;;;;;;;17.90;5.75;;;35.30;48.60;;;;;;5091354;28;20047;-68
2022/06/05 12:06:51;;;;;;;21.40;5.68;;;35.40;48.80;;;;;;5091645;28;20047;-68
2022/06/05 12:09:59;;;;;;;20.52;6.20;;;35.40;48.90;;;;;;5091569;28;20055;-69
2022/06/05 12:13:27;;;;;;;14.57;6.00;;;35.30;49.00;;;;;;5090669;28;20522;-69
2022/06/05 12:16:37;;;;;;;23.15;5.97;;;35.20;49.70;;;;;;5090912;28;20058;-68
2022/06/05 12:20:07;;;;;;;29.60;5.93;;;35.20;50.70;;;;;;5091799;28;20035;-69
2022/06/05 12:23:29;;;;;;;14.57;5.65;;;35.00;50.90;;;;;;5091640;28;20534;-68
2022/06/05 12:26:57;;;;;;;15.73;5.30;;;35.00;51.60;;;;;;5090674;28;20067;-67
2022/06/05 12:30:13;;;;;;;13.88;4.82;;;35.00;52.70;;;;;;5090192;28;20039;-67
2022/06/05 12:33:27;;;;;;;15.57;5.15;;;35.00;53.10;;;;;;5091112;28;20221;-70
2022/06/05 12:36:52;;;;;;;14.10;4.65;;;35.10;53.20;;;;;;5091673;28;20055;-69
2022/06/05 12:39:59;;;;;;;15.15;5.28;;;35.20;53.30;;;;;;5090381;28;20031;-68
2022/06/05 12:43:30;;;;;;;22.63;5.90;;;35.30;53.50;;;;;;5091193;28;20051;-68
2022/06/05 12:46:40;;;;;;;;;;;35.30;54.00;;;;;;5091891;28;20508;-68
2022/06/05 12:50:07;;;;;;;19.17;4.90;;;35.30;53.60;;;;;;5091498;28;19927;-68
2022/06/05 12:54:06;;;;;;;10.68;4.93;;;35.30;53.70;;;;;;5091232;28;20110;-68
2022/06/05 12:57:19;;;;;;;17.75;5.80;;;35.30;53.30;;;;;;5069504;28;20435;-68
2022/06/05 13:00:36;;;;;;;18.95;5.13;;;35.30;53.10;;;;;;5091138;28;20043;-70
2022/06/05 13:04:04;;;;;;;14.65;4.40;;;35.30;53.10;;;;;;5090219;28;20040;-68
2022/06/05 13:07:20;;;;;;;14.48;5.00;;;35.20;53.40;;;;;;5090666;28;20051;-68
2022/06/05 13:10:48;;;;;;;14.05;4.80;;;35.20;53.20;;;;;;5090584;28;20043;-68
2022/06/05 13:14:08;;;;;;;17.20;4.60;;;35.00;54.60;;;;;;5090533;28;20052;-68
2022/06/05 13:17:24;;;;;;;12.57;4.50;;;35.00;54.90;;;;;;5090883;28;20047;-69
2022/06/05 13:20:37;;;;;;;16.30;5.00;;;35.00;55.30;;;;;;5090148;28;20043;-67
2022/06/05 13:24:08;;;;;;;12.93;5.20;;;35.00;56.20;;;;;;5090844;28;20043;-67
2022/06/05 13:27:18;;;;;;;10.57;5.78;;;34.80;56.40;;;;;;5091946;28;20392;-67
2022/06/05 13:30:24;;;;;;;;;;;34.80;56.50;;;;;;5094830;28;20039;-68
2022/06/05 13:33:43;;;;;;;13.85;4.70;;;34.80;56.20;;;;;;5093979;28;19919;-69
2022/06/05 13:37:17;;;;;;;26.98;4.95;;;34.70;56.40;;;;;;5093656;28;20059;-68
2022/06/05 13:40:49;;;;;;;9.98;4.45;;;34.70;55.90;;;;;;5098074;28;20043;-67
2022/06/05 13:44:20;;;;;;;19.65;5.00;;;34.60;55.50;;;;;;5081754;28;20043;-68
2022/06/05 13:47:24;;;;;;;;;;;34.50;56.60;;;;;;5094541;28;20039;-68
2022/06/05 13:51:12;;;;;;;17.65;5.38;;;34.40;57.60;;;;;;5093803;28;19934;-70
2022/06/05 13:54:59;;;;;;;17.67;4.55;;;34.40;57.60;;;;;;5094208;28;20043;-69
2022/06/05 13:58:03;;;;;;;15.30;3.97;;;34.30;55.70;;;;;;5072087;28;20159;-67
2022/06/05 14:01:31;;;;;;;13.75;4.20;;;34.20;55.90;;;;;;5093302;28;20055;-68
2022/06/05 14:04:59;;;;;;;9.27;3.88;;;34.20;55.10;;;;;;5093343;28;20039;-70
2022/06/05 14:08:24;;;;;;;16.55;4.28;;;34.10;55.30;;;;;;5093337;28;20055;-69
2022/06/05 14:11:43;;;;;;;11.30;4.07;;;34.10;55.00;;;;;;5093392;28;20534;-67
2022/06/05 14:14:48;;;;;;;17.23;3.88;;;34.00;53.80;;;;;;5094462;28;20066;-69
2022/06/05 14:17:56;;;;;;;16.90;4.13;;;34.00;54.60;;;;;;5093716;28;20047;-68
2022/06/05 14:21:02;;;;;;;18.80;4.15;;;34.00;54.20;;;;;;5093266;28;20178;-68
2022/06/05 14:24:14;;;;;;;13.02;3.67;;;33.90;54.20;;;;;;5092490;28;20047;-68
2022/06/05 14:27:30;;;;;;;15.02;4.07;;;33.80;54.50;;;;;;5093373;28;20055;-68
2022/06/05 14:30:42;;;;;;;21.15;4.95;;;33.80;54.70;;;;;;5092853;28;20055;-69
2022/06/05 14:33:59;;;;;;;28.52;5.10;;;33.70;55.30;;;;;;5092987;28;20043;-68
2022/06/05 14:37:20;;;;;;;26.73;5.65;;;33.60;55.40;;;;;;5092112;28;20043;-69
2022/06/05 14:40:42;;;;;;;21.27;5.53;;;33.60;55.30;;;;;;5091795;28;20054;-68
2022/06/05 14:43:53;;;;;;;28.98;4.88;;;33.50;54.80;;;;;;5092675;28;20048;-67
2022/06/05 14:47:05;;;;;;;24.80;4.60;;;33.50;55.20;;;;;;5092867;28;20410;-69
2022/06/05 14:51:07;;;;;;;22.10;5.03;;;33.40;55.90;;;;;;5092647;28;20107;-69
2022/06/05 14:57:51;;;;;;;13.40;3.88;;;33.30;56.00;;;;;;5062238;28;20043;-68
2022/06/05 14:58:02;;;;;;;11.25;3.67;;;33.20;56.20;;;;;;5092692;28;20035;-68
2022/06/05 15:01:14;;;;;;;10.52;4.53;;;33.30;56.20;;;;;;5092336;28;20043;-68
2022/06/05 15:04:37;;;;;;;15.93;3.75;;;33.30;56.40;;;;;;5092295;28;20395;-69
2022/06/05 15:07:49;;;;;;;11.18;3.40;;;33.30;56.20;;;;;;5092127;28;20051;-68
2022/06/05 15:11:03;;;;;;;14.10;4.47;;;33.30;57.10;;;;;;5092336;28;20047;-69
2022/06/05 15:14:13;;;;;;;18.17;4.03;;;33.30;57.40;;;;;;5092234;28;20058;-69
2022/06/05 15:17:38;;;;;;;13.80;3.83;;;33.30;57.50;;;;;;5092820;28;20047;-68
2022/06/05 15:21:31;;;;;;;13.77;3.72;;;33.20;57.40;;;;;;5091919;28;20046;-68
2022/06/05 15:24:49;;;;;;;13.70;4.03;;;33.20;57.40;;;;;;5072444;28;20047;-67
2022/06/05 15:28:06;;;;;;;10.65;3.25;;;33.10;57.40;;;;;;5092144;28;20039;-68
2022/06/05 15:31:37;;;;;;;14.90;4.03;;;33.20;57.70;;;;;;5091282;28;20058;-68
2022/06/05 15:34:53;;;;;;;10.65;3.40;;;33.10;58.10;;;;;;5091012;28;20043;-69
2022/06/05 15:38:18;;;;;;;11.68;3.78;;;33.10;57.60;;;;;;5092048;28;20031;-69
2022/06/05 15:41:42;;;;;;;12.68;2.85;;;33.10;54.90;;;;;;5091768;28;20051;-68
2022/06/05 15:44:58;;;;;;;14.73;3.35;;;33.00;50.90;;;;;;5092289;28;20054;-69
2022/06/05 15:48:20;;;;;;;10.70;2.45;;;33.00;51.00;;;;;;5090718;28;20491;-68
2022/06/05 15:52:02;;;;;;;5.90;2.30;;;33.00;50.50;;;;;;5090132;28;20047;-67
2022/06/05 15:55:24;;;;;;;7.13;2.03;;;33.00;49.70;;;;;;5091564;28;20517;-68
2022/06/05 15:58:47;;;;;;;9.82;2.65;;;33.00;49.50;;;;;;5091538;28;20531;-69
2022/06/05 16:02:19;;;;;;;5.53;1.80;;;33.00;50.30;;;;;;5090797;28;20051;-69
2022/06/05 16:05:27;;;;;;;7.65;2.53;;;33.00;51.80;;;;;;5091595;28;20031;-71
2022/06/05 16:08:50;;;;;;;8.73;2.33;;;33.00;51.70;;;;;;5090487;28;20051;-69
2022/06/05 16:12:20;;;;;;;6.72;2.05;;;33.00;51.70;;;;;;5090436;28;20043;-68
2022/06/05 16:15:46;;;;;;;7.60;2.50;;;32.90;51.80;;;;;;5091607;28;20106;-68
2022/06/05 16:19:12;;;;;;;7.95;2.20;;;32.90;52.10;;;;;;5091236;28;20391;-68
2022/06/05 16:22:49;;;;;;;7.18;2.20;;;32.90;51.20;;;;;;5091683;28;20055;-68
2022/06/05 16:26:19;;;;;;;10.10;2.38;;;32.90;51.30;;;;;;5086276;28;20043;-69
2022/06/05 16:29:24;;;;;;;8.07;1.98;;;32.80;49.40;;;;;;5091136;28;20059;-69
2022/06/05 16:32:38;;;;;;;11.93;2.30;;;32.80;49.30;;;;;;5091220;28;20597;-69
2022/06/05 16:39:19;;;;;;;4.60;1.73;;;32.80;48.70;;;;;;5091145;28;20047;-68
2022/06/05 16:42:58;;;;;;;5.38;1.90;;;32.80;47.50;;;;;;5090887;28;20043;-69
2022/06/05 16:46:24;;;;;;;10.43;2.17;;;32.80;46.60;;;;;;5091109;28;20039;-68
2022/06/05 16:49:42;;;;;;;6.82;2.30;;;32.80;45.30;;;;;;5090912;28;20202;-68
2022/06/05 16:52:48;;;;;;;8.70;2.10;;;32.70;46.00;;;;;;5091106;28;20574;-69
2022/06/05 16:56:05;;;;;;;6.78;1.85;;;32.70;46.40;;;;;;5090860;28;20031;-69
2022/06/05 16:59:31;;;;;;;9.15;2.10;;;32.70;46.10;;;;;;5090478;28;20047;-67